createdAt,value
2019-02-15T00:00:28.295Z,91.40
2019-02-15T00:02:57.839Z,90.63
2019-02-15T00:05:27.169Z,91.57
2019-02-15T00:07:56.518Z,92.27
2019-02-15T00:10:25.832Z,100.97
2019-02-15T00:12:55.186Z,89.07
2019-02-15T00:15:24.503Z,98.10
2019-02-15T00:17:55.493Z,91.03
2019-02-15T00:20:32.512Z,87.40
2019-02-15T00:23:01.853Z,82.50
2019-02-15T00:25:31.235Z,86.07
2019-02-15T00:28:00.577Z,83.57
2019-02-15T00:30:29.886Z,83.73
2019-02-15T00:32:59.241Z,84.37
2019-02-15T00:35:29.521Z,89.17
2019-02-15T00:37:59.021Z,87.33
2019-02-15T00:40:28.333Z,91.83
2019-02-15T00:42:57.687Z,84.87
2019-02-15T00:45:31.409Z,84.17
2019-02-15T00:48:02.406Z,86.90
2019-02-15T00:50:36.126Z,80.47
2019-02-15T00:53:16.321Z,97.73
2019-02-15T00:56:02.438Z,87.70
2019-02-15T00:58:49.744Z,84.67
2019-02-15T01:01:23.475Z,83.50
2019-02-15T01:03:57.126Z,91.00
2019-02-15T01:06:42.973Z,78.87
2019-02-15T01:09:17.009Z,87.80
2019-02-15T01:12:05.978Z,86.90
2019-02-15T01:14:35.333Z,86.43
2019-02-15T01:17:05.243Z,84.70
2019-02-15T01:19:34.873Z,82.90
2019-02-15T01:22:04.177Z,87.00
2019-02-15T01:24:33.614Z,81.90
2019-02-15T01:27:04.558Z,88.43
2019-02-15T01:29:38.845Z,82.90
2019-02-15T01:32:09.769Z,84.57
2019-02-15T01:34:46.818Z,81.77
2019-02-15T01:37:23.603Z,79.87
2019-02-15T01:39:54.595Z,76.10
2019-02-15T01:42:41.779Z,84.23
2019-02-15T01:45:15.777Z,86.97
2019-02-15T01:47:45.275Z,81.57
2019-02-15T01:50:15.570Z,80.03
2019-02-15T01:52:44.945Z,84.17
2019-02-15T01:55:14.247Z,91.03
2019-02-15T01:57:43.591Z,84.47
2019-02-15T02:00:14.537Z,89.53
2019-02-15T02:02:44.354Z,85.87
2019-02-15T02:05:13.672Z,87.97
2019-02-15T02:07:43.006Z,90.47
2019-02-15T02:10:12.325Z,94.43
2019-02-15T02:12:41.670Z,90.20
2019-02-15T02:15:10.981Z,97.53
2019-02-15T02:17:40.329Z,89.47
2019-02-15T02:20:09.904Z,107.63
2019-02-15T02:22:39.266Z,105.57
2019-02-15T02:25:08.582Z,101.93
2019-02-15T02:27:37.933Z,97.60
2019-02-15T02:30:09.674Z,91.97
2019-02-15T02:32:39.107Z,96.07
2019-02-15T02:35:09.096Z,101.03
2019-02-15T02:37:38.448Z,116.37
2019-02-15T02:40:08.635Z,103.37
2019-02-15T02:42:37.998Z,107.73
2019-02-15T02:45:07.677Z,101.43
2019-02-15T02:47:39.902Z,101.17
2019-02-15T02:50:09.226Z,106.23
2019-02-15T02:52:38.638Z,106.03
2019-02-15T02:55:07.967Z,119.07
2019-02-15T02:57:37.373Z,186.30
2019-02-15T03:00:06.889Z,142.67
2019-02-15T03:02:36.378Z,134.93
2019-02-15T03:05:05.681Z,129.63
2019-02-15T03:07:35.109Z,154.67
2019-02-15T03:10:06.621Z,128.33
2019-02-15T03:12:35.973Z,138.70
2019-02-15T03:15:05.737Z,132.33
2019-02-15T03:17:35.174Z,138.07
2019-02-15T03:20:05.870Z,133.37
2019-02-15T03:22:35.247Z,125.47
2019-02-15T03:25:04.872Z,122.50
2019-02-15T03:27:34.286Z,130.40
2019-02-15T03:30:05.846Z,143.33
2019-02-15T03:32:35.184Z,122.60
2019-02-15T03:35:07.334Z,122.13
2019-02-15T03:37:54.735Z,124.73
2019-02-15T03:40:28.437Z,127.57
2019-02-15T03:42:57.791Z,127.80
2019-02-15T03:45:27.104Z,141.53
2019-02-15T03:47:56.459Z,128.47
2019-02-15T03:50:25.776Z,125.40
2019-02-15T03:52:55.150Z,112.87
2019-02-15T03:55:24.529Z,117.33
2019-02-15T03:57:53.893Z,135.90
2019-02-15T04:00:23.258Z,112.83
2019-02-15T04:02:52.614Z,114.47
2019-02-15T04:05:21.967Z,104.37
2019-02-15T04:07:51.281Z,107.00
2019-02-15T04:10:20.634Z,108.90
2019-02-15T04:12:49.946Z,128.47
2019-02-15T04:15:19.303Z,112.93
2019-02-15T04:17:48.614Z,122.50
2019-02-15T04:20:17.973Z,124.47
2019-02-15T04:22:48.924Z,130.73
2019-02-15T04:25:18.279Z,128.03
2019-02-15T04:27:47.593Z,121.27
2019-02-15T04:30:16.960Z,130.63
2019-02-15T04:32:46.346Z,123.33
2019-02-15T04:35:15.715Z,125.13
2019-02-15T04:37:45.013Z,139.80
2019-02-15T04:40:14.361Z,122.37
2019-02-15T04:42:43.684Z,138.27
2019-02-15T04:45:13.038Z,119.00
2019-02-15T04:47:42.350Z,129.20
2019-02-15T04:50:11.697Z,121.73
2019-02-15T04:52:41.012Z,108.47
2019-02-15T04:55:10.370Z,113.70
2019-02-15T04:57:39.671Z,133.43
2019-02-15T05:00:09.566Z,146.57
2019-02-15T05:02:38.875Z,119.47
2019-02-15T05:05:08.301Z,134.47
2019-02-15T05:07:37.605Z,137.53
2019-02-15T05:10:06.970Z,142.17
2019-02-15T05:12:36.487Z,139.67
2019-02-15T05:15:07.574Z,136.17
2019-02-15T05:17:36.923Z,139.83
2019-02-15T05:20:07.534Z,168.77
2019-02-15T05:22:36.889Z,154.33
2019-02-15T05:25:06.241Z,175.23
2019-02-15T05:27:35.566Z,176.50
2019-02-15T05:30:06.854Z,177.47
2019-02-15T05:32:36.545Z,179.13
2019-02-15T05:35:06.273Z,191.83
2019-02-15T05:37:35.581Z,209.03
2019-02-15T05:40:05.775Z,200.43
2019-02-15T05:42:35.098Z,218.13
2019-02-15T05:45:05.856Z,231.53
2019-02-15T05:47:35.170Z,237.23
2019-02-15T05:50:06.438Z,212.80
2019-02-15T05:52:35.774Z,209.33
2019-02-15T05:55:06.270Z,220.60
2019-02-15T05:57:35.582Z,218.07
2019-02-15T06:00:09.973Z,202.33
2019-02-15T06:02:39.284Z,237.43
2019-02-15T06:05:09.211Z,250.70
2019-02-15T06:07:38.519Z,316.40
2019-02-15T06:10:08.543Z,311.50
2019-02-15T06:12:37.913Z,304.27
2019-02-15T06:15:14.770Z,311.30
2019-02-15T06:17:38.249Z,277.63
2019-02-15T06:20:08.236Z,302.90
2019-02-15T06:22:37.529Z,308.50
2019-02-15T06:25:06.900Z,307.67
2019-02-15T06:27:36.586Z,335.73
2019-02-15T06:30:07.794Z,291.50
2019-02-15T06:32:37.162Z,267.10
2019-02-15T06:35:07.484Z,255.33
2019-02-15T06:37:36.794Z,246.40
2019-02-15T06:40:06.566Z,226.70
2019-02-15T06:42:36.007Z,263.07
2019-02-15T06:45:06.614Z,250.83
2019-02-15T06:47:35.994Z,274.50
2019-02-15T06:50:07.241Z,267.50
2019-02-15T06:52:36.601Z,284.33
2019-02-15T06:55:06.766Z,285.80
2019-02-15T06:57:36.117Z,299.50
2019-02-15T07:00:13.409Z,305.53
2019-02-15T07:02:53.211Z,307.90
2019-02-15T07:05:28.321Z,300.90
2019-02-15T07:07:57.688Z,266.60
2019-02-15T07:10:26.984Z,251.73
2019-02-15T07:12:56.357Z,246.33
2019-02-15T07:15:33.434Z,278.43
2019-02-15T07:17:56.656Z,239.90
2019-02-15T07:20:25.971Z,233.90
2019-02-15T07:22:55.341Z,242.60
2019-02-15T07:25:24.672Z,226.43
2019-02-15T07:27:54.013Z,213.67
2019-02-15T07:30:23.326Z,241.83
2019-02-15T07:32:52.689Z,261.33
2019-02-15T07:35:22.002Z,244.37
2019-02-15T07:37:51.362Z,228.90
2019-02-15T07:40:20.678Z,239.50
2019-02-15T07:42:50.034Z,237.73
2019-02-15T07:45:19.356Z,237.57
2019-02-15T07:47:48.706Z,219.23
2019-02-15T07:50:18.010Z,218.73
2019-02-15T07:52:47.366Z,213.60
2019-02-15T07:55:16.681Z,192.93
2019-02-15T07:57:46.038Z,188.70
2019-02-15T08:00:15.803Z,198.97
2019-02-15T08:02:45.149Z,188.77
2019-02-15T08:05:14.462Z,197.00
2019-02-15T08:07:43.827Z,192.67
2019-02-15T08:10:13.134Z,198.23
2019-02-15T08:12:42.496Z,196.47
2019-02-15T08:15:11.792Z,189.67
2019-02-15T08:17:41.221Z,180.10
2019-02-15T08:20:11.318Z,178.20
2019-02-15T08:22:40.668Z,177.63
2019-02-15T08:25:10.079Z,193.23
2019-02-15T08:27:39.578Z,173.40
2019-02-15T08:30:12.426Z,167.20
2019-02-15T08:32:42.009Z,177.33
2019-02-15T08:35:12.297Z,167.20
2019-02-15T08:37:43.068Z,170.10
2019-02-15T08:40:12.493Z,162.10
2019-02-15T08:42:41.867Z,180.33
2019-02-15T08:45:12.518Z,176.40
2019-02-15T08:47:41.902Z,158.70
2019-02-15T08:50:13.223Z,180.07
2019-02-15T08:52:43.642Z,180.93
2019-02-15T08:55:13.022Z,186.50
2019-02-15T08:57:42.441Z,180.10
2019-02-15T09:00:12.991Z,175.43
2019-02-15T09:02:42.297Z,172.87
2019-02-15T09:05:13.173Z,168.03
2019-02-15T09:07:42.490Z,167.73
2019-02-15T09:10:13.023Z,179.70
2019-02-15T09:12:43.767Z,175.57
2019-02-15T09:15:16.083Z,180.53
2019-02-15T09:17:45.853Z,167.40
2019-02-15T09:20:15.811Z,168.63
2019-02-15T09:22:46.725Z,174.40
2019-02-15T09:25:16.098Z,163.07
2019-02-15T09:28:02.741Z,161.63
2019-02-15T09:30:32.290Z,169.23
2019-02-15T09:33:01.607Z,171.63
2019-02-15T09:35:33.672Z,173.67
2019-02-15T09:38:02.978Z,169.47
2019-02-15T09:40:32.660Z,161.43
2019-02-15T09:43:02.053Z,156.87
2019-02-15T09:45:32.862Z,157.17
2019-02-15T09:48:02.334Z,163.77
2019-02-15T09:50:31.689Z,135.47
2019-02-15T09:53:01.001Z,144.07
2019-02-15T09:55:30.365Z,142.80
2019-02-15T09:57:59.759Z,152.97
2019-02-15T10:00:29.118Z,151.10
2019-02-15T10:02:58.442Z,159.67
2019-02-15T10:05:28.768Z,149.80
2019-02-15T10:07:58.089Z,150.80
2019-02-15T10:10:27.461Z,152.63
2019-02-15T10:12:56.776Z,149.07
2019-02-15T10:15:26.145Z,145.63
2019-02-15T10:17:55.460Z,141.73
2019-02-15T10:20:25.014Z,144.67
2019-02-15T10:22:55.480Z,143.43
2019-02-15T10:25:25.043Z,128.37
2019-02-15T10:27:54.357Z,140.40
2019-02-15T10:30:23.746Z,131.03
2019-02-15T10:32:53.149Z,130.13
2019-02-15T10:35:23.781Z,130.30
2019-02-15T10:37:53.095Z,122.00
2019-02-15T10:40:23.667Z,128.70
2019-02-15T10:42:54.439Z,122.30
2019-02-15T10:45:25.294Z,141.60
2019-02-15T10:47:55.853Z,160.10
2019-02-15T10:50:26.178Z,159.13
2019-02-15T10:52:55.493Z,168.13
2019-02-15T10:55:26.340Z,147.47
2019-02-15T10:57:55.727Z,149.57
2019-02-15T11:00:25.085Z,176.43
2019-02-15T11:02:55.044Z,177.97
2019-02-15T11:05:24.403Z,181.13
2019-02-15T11:07:53.720Z,173.17
2019-02-15T11:10:23.646Z,177.47
2019-02-15T11:12:52.975Z,159.87
2019-02-15T11:15:23.050Z,175.43
2019-02-15T11:17:52.367Z,168.27
2019-02-15T11:20:21.784Z,160.73
2019-02-15T11:22:51.101Z,164.87
2019-02-15T11:25:23.894Z,168.63
2019-02-15T11:27:53.330Z,158.50
2019-02-15T11:30:22.751Z,163.93
2019-02-15T11:32:55.892Z,163.80
2019-02-15T11:35:25.265Z,160.47
2019-02-15T11:37:54.620Z,176.87
2019-02-15T11:40:24.934Z,163.10
2019-02-15T11:42:54.620Z,174.27
2019-02-15T11:45:24.065Z,147.97
2019-02-15T11:47:53.598Z,164.80
2019-02-15T11:50:22.977Z,149.97
2019-02-15T11:52:52.409Z,163.23
2019-02-15T11:55:21.797Z,151.20
2019-02-15T11:57:51.142Z,162.03
2019-02-15T12:00:23.129Z,164.87
2019-02-15T12:02:52.638Z,163.97
2019-02-15T12:05:22.089Z,167.57
2019-02-15T12:07:51.449Z,164.47
2019-02-15T12:10:20.824Z,153.63
2019-02-15T12:12:50.432Z,150.53
2019-02-15T12:15:19.735Z,154.37
2019-02-15T12:17:50.272Z,141.47
2019-02-15T12:20:20.747Z,151.13
2019-02-15T12:22:50.126Z,136.07
2019-02-15T12:25:19.429Z,124.43
2019-02-15T12:27:48.869Z,118.30
2019-02-15T12:30:18.228Z,121.60
2019-02-15T12:32:47.534Z,130.00
2019-02-15T12:35:18.527Z,128.57
2019-02-15T12:37:47.843Z,134.40
2019-02-15T12:40:17.218Z,165.67
2019-02-15T12:42:46.518Z,138.70
2019-02-15T12:45:16.526Z,149.30
2019-02-15T12:47:45.830Z,153.57
2019-02-15T12:50:16.834Z,145.13
2019-02-15T12:52:46.163Z,149.23
2019-02-15T12:55:15.496Z,157.87
2019-02-15T12:57:44.848Z,160.73
2019-02-15T13:00:15.537Z,149.40
2019-02-15T13:02:44.934Z,169.00
2019-02-15T13:05:14.553Z,174.67
2019-02-15T13:07:45.109Z,156.40
2019-02-15T13:10:18.893Z,134.10
2019-02-15T13:12:48.201Z,120.73
2019-02-15T13:15:17.554Z,124.77
2019-02-15T13:17:46.874Z,130.50
2019-02-15T13:20:16.229Z,128.27
2019-02-15T13:22:45.539Z,124.63
2019-02-15T13:25:14.907Z,130.10
2019-02-15T13:27:44.217Z,130.23
2019-02-15T13:30:15.310Z,139.60
2019-02-15T13:32:44.659Z,139.60
2019-02-15T13:35:24.327Z,124.13
2019-02-15T13:37:53.637Z,125.60
2019-02-15T13:40:22.993Z,121.97
2019-02-15T13:42:52.312Z,128.93
2019-02-15T13:45:21.669Z,123.97
2019-02-15T13:47:50.978Z,117.67
2019-02-15T13:50:20.359Z,131.77
2019-02-15T13:52:49.674Z,135.70
2019-02-15T13:55:18.993Z,145.17
2019-02-15T13:57:48.339Z,156.60
2019-02-15T14:00:17.662Z,132.00
2019-02-15T14:02:47.014Z,126.93
2019-02-15T14:05:16.328Z,143.30
2019-02-15T14:07:45.695Z,137.43
2019-02-15T14:10:15.573Z,135.33
2019-02-15T14:12:44.931Z,127.23
2019-02-15T14:15:14.242Z,142.77
2019-02-15T14:17:46.349Z,117.27
2019-02-15T14:20:14.573Z,117.87
2019-02-15T14:22:43.901Z,144.37
2019-02-15T14:25:13.205Z,144.27
2019-02-15T14:27:42.557Z,136.97
2019-02-15T14:30:15.854Z,144.43
2019-02-15T14:32:45.214Z,143.37
2019-02-15T14:35:14.593Z,160.40
2019-02-15T14:37:44.025Z,144.93
2019-02-15T14:40:14.005Z,145.60
2019-02-15T14:42:43.361Z,157.23
2019-02-15T14:45:13.414Z,154.43
2019-02-15T14:47:42.936Z,118.30
2019-02-15T14:50:12.247Z,116.20
2019-02-15T14:52:41.613Z,126.03
2019-02-15T14:55:11.897Z,121.43
2019-02-15T14:57:41.244Z,220.03
2019-02-15T15:00:12.309Z,277.83
2019-02-15T15:02:41.734Z,260.40
2019-02-15T15:05:14.400Z,162.53
2019-02-15T15:07:43.820Z,136.93
2019-02-15T15:10:13.136Z,113.13
2019-02-15T15:12:42.482Z,112.80
2019-02-15T15:15:13.128Z,118.97
2019-02-15T15:17:42.472Z,115.47
2019-02-15T15:20:12.533Z,113.20
2019-02-15T15:22:42.056Z,119.20
2019-02-15T15:25:12.797Z,123.43
2019-02-15T15:27:42.449Z,134.60
2019-02-15T15:30:15.729Z,129.13
2019-02-15T15:32:45.087Z,141.03
2019-02-15T15:35:14.402Z,122.67
2019-02-15T15:37:43.752Z,111.43
2019-02-15T15:40:16.276Z,111.50
2019-02-15T15:42:45.631Z,103.03
2019-02-15T15:45:14.941Z,106.07
2019-02-15T15:47:44.289Z,112.97
2019-02-15T15:50:13.599Z,113.90
2019-02-15T15:52:43.121Z,109.50
2019-02-15T15:55:13.465Z,117.00
2019-02-15T15:57:42.829Z,115.83
2019-02-15T16:00:14.345Z,117.60
2019-02-15T16:02:43.765Z,116.13
2019-02-15T16:05:13.069Z,104.83
2019-02-15T16:07:43.647Z,115.30
2019-02-15T16:10:14.069Z,110.83
2019-02-15T16:12:43.443Z,128.43
2019-02-15T16:15:13.484Z,135.67
2019-02-15T16:17:42.841Z,152.57
2019-02-15T16:20:12.886Z,160.43
2019-02-15T16:22:42.243Z,146.70
2019-02-15T16:25:11.636Z,145.93
2019-02-15T16:27:40.990Z,163.87
2019-02-15T16:30:14.318Z,137.37
2019-02-15T16:32:43.684Z,121.70
2019-02-15T16:35:13.006Z,158.33
2019-02-15T16:37:42.365Z,159.80
2019-02-15T16:40:13.915Z,147.97
2019-02-15T16:42:43.294Z,152.20
2019-02-15T16:45:14.514Z,139.67
2019-02-15T16:47:43.874Z,111.60
2019-02-15T16:50:14.838Z,125.30
2019-02-15T16:52:44.204Z,111.43
2019-02-15T16:55:13.649Z,121.30
2019-02-15T16:57:44.121Z,110.77
2019-02-15T17:00:13.802Z,129.13
2019-02-15T17:02:43.487Z,129.70
2019-02-15T17:05:13.110Z,122.40
2019-02-15T17:07:42.573Z,128.77
2019-02-15T17:10:11.917Z,117.67
2019-02-15T17:12:41.299Z,128.87
2019-02-15T17:15:15.681Z,113.97
2019-02-15T17:17:44.985Z,124.97
2019-02-15T17:20:14.360Z,114.93
2019-02-15T17:22:43.683Z,140.60
2019-02-15T17:25:13.114Z,111.70
2019-02-15T17:27:42.429Z,118.40
2019-02-15T17:30:12.322Z,122.23
2019-02-15T17:32:41.634Z,132.93
2019-02-15T17:35:11.851Z,147.87
2019-02-15T17:37:42.320Z,133.73
2019-02-15T17:40:15.993Z,140.50
2019-02-15T17:42:45.382Z,162.53
2019-02-15T17:45:14.768Z,180.57
2019-02-15T17:47:44.157Z,173.87
2019-02-15T17:50:13.513Z,173.67
2019-02-15T17:52:42.906Z,180.87
2019-02-15T17:55:13.628Z,174.40
2019-02-15T17:57:42.934Z,157.67
2019-02-15T18:00:19.165Z,145.07
2019-02-15T18:02:48.465Z,175.57
2019-02-15T18:05:18.782Z,182.23
2019-02-15T18:07:49.629Z,162.13
2019-02-15T18:10:20.076Z,177.50
2019-02-15T18:12:49.393Z,178.93
2019-02-15T18:15:18.749Z,161.37
2019-02-15T18:17:48.062Z,183.90
2019-02-15T18:20:17.428Z,175.17
2019-02-15T18:22:46.815Z,180.73
2019-02-15T18:25:16.161Z,178.93
2019-02-15T18:27:45.475Z,166.63
2019-02-15T18:30:16.089Z,191.33
2019-02-15T18:32:45.417Z,183.60
2019-02-15T18:35:14.754Z,172.67
2019-02-15T18:37:44.062Z,172.20
2019-02-15T18:40:13.498Z,149.07
2019-02-15T18:42:42.801Z,158.70
2019-02-15T18:45:14.357Z,178.33
2019-02-15T18:47:43.674Z,180.87
2019-02-15T18:50:13.039Z,164.77
2019-02-15T18:52:42.422Z,175.40
2019-02-15T18:55:12.359Z,173.20
2019-02-15T18:57:41.629Z,141.47
2019-02-15T19:00:17.496Z,137.60
2019-02-15T19:02:48.918Z,157.93
2019-02-15T19:05:18.270Z,183.37
2019-02-15T19:07:47.573Z,154.13
2019-02-15T19:10:21.348Z,148.43
2019-02-15T19:12:50.657Z,117.93
2019-02-15T19:15:20.018Z,121.90
2019-02-15T19:17:49.335Z,109.23
2019-02-15T19:20:18.709Z,111.23
2019-02-15T19:22:47.996Z,124.50
2019-02-15T19:25:19.381Z,128.27
2019-02-15T19:27:48.771Z,148.27
2019-02-15T19:30:23.992Z,159.60
2019-02-15T19:32:53.302Z,160.73
2019-02-15T19:35:22.675Z,160.43
2019-02-15T19:37:52.015Z,152.20
2019-02-15T19:40:21.813Z,122.23
2019-02-15T19:42:56.666Z,123.57
2019-02-15T19:45:26.871Z,110.03
2019-02-15T19:47:58.370Z,124.90
2019-02-15T19:50:28.459Z,150.80
2019-02-15T19:52:58.234Z,173.13
2019-02-15T19:55:27.972Z,171.33
2019-02-15T19:57:57.723Z,181.90
2019-02-15T20:00:27.161Z,164.37
2019-02-15T20:02:56.534Z,173.10
2019-02-15T20:05:25.894Z,136.97
2019-02-15T20:07:56.711Z,139.20
2019-02-15T20:10:26.395Z,136.80
2019-02-15T20:12:57.144Z,147.40
2019-02-15T20:15:27.577Z,151.20
2019-02-15T20:17:56.877Z,143.83
2019-02-15T20:20:26.232Z,144.60
2019-02-15T20:22:55.605Z,136.97
2019-02-15T20:25:25.035Z,134.20
2019-02-15T20:27:54.357Z,138.23
2019-02-15T20:30:24.001Z,144.60
2019-02-15T20:32:53.380Z,123.07
2019-02-15T20:35:22.749Z,118.90
2019-02-15T20:37:53.731Z,131.23
2019-02-15T20:40:23.084Z,126.60
2019-02-15T20:42:54.147Z,140.73
2019-02-15T20:45:23.954Z,120.27
2019-02-15T20:47:53.389Z,110.70
2019-02-15T20:50:22.800Z,111.97
2019-02-15T20:52:52.225Z,123.43
2019-02-15T20:55:21.529Z,134.77
2019-02-15T20:57:50.913Z,110.80
2019-02-15T21:00:25.624Z,107.73
2019-02-15T21:02:55.821Z,108.20
2019-02-15T21:05:25.177Z,113.03
2019-02-15T21:07:54.534Z,110.07
2019-02-15T21:10:23.885Z,120.93
2019-02-15T21:12:53.270Z,119.33
2019-02-15T21:15:24.183Z,123.80
2019-02-15T21:17:54.767Z,158.37
2019-02-15T21:20:24.622Z,133.97
2019-02-15T21:22:54.130Z,136.73
2019-02-15T21:25:23.441Z,222.90
2019-02-15T21:27:52.797Z,92.13
2019-02-15T21:30:22.138Z,95.23
2019-02-15T21:32:51.488Z,89.83
2019-02-15T21:35:20.795Z,90.53
2019-02-15T21:37:50.210Z,99.03
2019-02-15T21:40:19.525Z,93.60
2019-02-15T21:42:48.878Z,89.07
2019-02-15T21:45:18.181Z,92.90
2019-02-15T21:47:47.541Z,99.03
2019-02-15T21:50:17.750Z,100.73
2019-02-15T21:52:47.686Z,98.83
2019-02-15T21:55:17.226Z,105.87
2019-02-15T21:57:46.577Z,117.50
2019-02-15T22:00:20.891Z,115.83
2019-02-15T22:02:50.308Z,125.70
2019-02-15T22:05:19.629Z,134.97
2019-02-15T22:07:48.989Z,140.60
2019-02-15T22:10:19.485Z,112.60
2019-02-15T22:12:48.837Z,134.90
2019-02-15T22:15:18.224Z,116.83
2019-02-15T22:17:47.580Z,112.13
2019-02-15T22:20:25.902Z,126.73
2019-02-15T22:22:48.614Z,117.27
2019-02-15T22:25:17.917Z,111.40
2019-02-15T22:27:47.266Z,105.20
2019-02-15T22:30:20.417Z,96.70
2019-02-15T22:32:49.772Z,111.30
2019-02-15T22:35:19.122Z,109.10
2019-02-15T22:37:48.466Z,99.20
2019-02-15T22:40:28.066Z,106.03
2019-02-15T22:43:00.210Z,100.27
2019-02-15T22:45:29.517Z,93.13
2019-02-15T22:47:58.865Z,118.67
2019-02-15T22:50:35.653Z,118.43
2019-02-15T22:52:59.157Z,120.13
2019-02-15T22:55:28.469Z,122.77
2019-02-15T22:57:57.830Z,109.77
2019-02-15T23:06:33.013Z,111.13
2019-02-15T23:09:04.076Z,104.87
2019-02-15T23:11:35.018Z,100.23
2019-02-15T23:14:04.379Z,98.73
2019-02-15T23:16:33.685Z,101.63
2019-02-15T23:19:03.307Z,93.27
2019-02-15T23:21:32.612Z,105.20
2019-02-15T23:24:02.127Z,96.80
2019-02-15T23:26:31.510Z,100.27
2019-02-15T23:29:00.870Z,101.27
2019-02-15T23:31:30.178Z,98.57
2019-02-15T23:33:59.525Z,104.73
2019-02-15T23:36:29.798Z,106.53
2019-02-15T23:38:59.163Z,100.83
2019-02-15T23:41:28.496Z,100.33
2019-02-15T23:43:57.823Z,107.37
2019-02-15T23:46:27.133Z,99.67
2019-02-15T23:48:56.485Z,101.50
2019-02-15T23:51:25.786Z,95.47
2019-02-15T23:53:55.142Z,104.20
2019-02-15T23:56:24.496Z,95.87
2019-02-15T23:58:53.840Z,100.30
